sensor_id;sensor_type;location;lat;lon;timestamp;temperature;humidity
16871;DHT22;8552;48.120;-1.456;2023-05-15T00:00:08;11.50;99.90
16871;DHT22;8552;48.120;-1.456;2023-05-15T00:02:35;11.50;99.90
16871;DHT22;8552;48.120;-1.456;2023-05-15T00:05:06;11.50;99.90
16871;DHT22;8552;48.120;-1.456;2023-05-15T00:07:32;11.50;99.90
16871;DHT22;8552;48.120;-1.456;2023-05-15T00:09:58;11.50;99.90
16871;DHT22;8552;48.120;-1.456;2023-05-15T00:12:25;11.60;99.90
16871;DHT22;8552;48.120;-1.456;2023-05-15T00:14:50;11.60;99.90
16871;DHT22;8552;48.120;-1.456;2023-05-15T00:17:16;11.50;99.90
16871;DHT22;8552;48.120;-1.456;2023-05-15T00:19:41;11.50;99.90
16871;DHT22;8552;48.120;-1.456;2023-05-15T00:22:07;11.50;99.90
16871;DHT22;8552;48.120;-1.456;2023-05-15T00:24:33;11.50;99.90
16871;DHT22;8552;48.120;-1.456;2023-05-15T00:26:59;11.60;99.90
16871;DHT22;8552;48.120;-1.456;2023-05-15T00:29:25;11.50;99.90
16871;DHT22;8552;48.120;-1.456;2023-05-15T00:31:51;11.50;99.90
16871;DHT22;8552;48.120;-1.456;2023-05-15T00:34:16;11.60;99.90
16871;DHT22;8552;48.120;-1.456;2023-05-15T00:36:43;11.60;99.90
16871;DHT22;8552;48.120;-1.456;2023-05-15T00:39:08;11.60;99.90
16871;DHT22;8552;48.120;-1.456;2023-05-15T00:41:34;11.60;99.90
16871;DHT22;8552;48.120;-1.456;2023-05-15T00:44:01;11.60;99.90
16871;DHT22;8552;48.120;-1.456;2023-05-15T00:46:30;11.60;99.90
16871;DHT22;8552;48.120;-1.456;2023-05-15T00:48:56;11.60;99.90
16871;DHT22;8552;48.120;-1.456;2023-05-15T00:51:23;11.60;99.90
16871;DHT22;8552;48.120;-1.456;2023-05-15T00:53:50;11.60;99.90
16871;DHT22;8552;48.120;-1.456;2023-05-15T00:56:17;11.60;99.90
16871;DHT22;8552;48.120;-1.456;2023-05-15T00:58:45;11.60;99.90
16871;DHT22;8552;48.120;-1.456;2023-05-15T01:01:13;11.60;99.90
16871;DHT22;8552;48.120;-1.456;2023-05-15T01:03:40;11.60;99.90
16871;DHT22;8552;48.120;-1.456;2023-05-15T01:06:06;11.60;99.90
16871;DHT22;8552;48.120;-1.456;2023-05-15T01:08:37;11.60;99.90
16871;DHT22;8552;48.120;-1.456;2023-05-15T01:11:05;11.50;99.90
16871;DHT22;8552;48.120;-1.456;2023-05-15T01:13:32;11.50;99.90
16871;DHT22;8552;48.120;-1.456;2023-05-15T01:15:57;11.50;99.90
16871;DHT22;8552;48.120;-1.456;2023-05-15T01:18:23;11.40;99.90
16871;DHT22;8552;48.120;-1.456;2023-05-15T01:34:59;11.40;99.90
16871;DHT22;8552;48.120;-1.456;2023-05-15T01:37:28;11.50;99.90
16871;DHT22;8552;48.120;-1.456;2023-05-15T01:40:02;11.50;99.90
16871;DHT22;8552;48.120;-1.456;2023-05-15T01:42:37;11.50;99.90
16871;DHT22;8552;48.120;-1.456;2023-05-15T01:45:08;11.50;99.90
16871;DHT22;8552;48.120;-1.456;2023-05-15T01:47:39;11.50;99.90
16871;DHT22;8552;48.120;-1.456;2023-05-15T01:50:09;11.50;99.90
16871;DHT22;8552;48.120;-1.456;2023-05-15T01:52:39;11.50;99.90
16871;DHT22;8552;48.120;-1.456;2023-05-15T01:55:06;11.50;99.90
16871;DHT22;8552;48.120;-1.456;2023-05-15T01:57:34;11.50;99.90
16871;DHT22;8552;48.120;-1.456;2023-05-15T02:00:00;11.50;99.90
16871;DHT22;8552;48.120;-1.456;2023-05-15T02:02:27;11.50;99.90
16871;DHT22;8552;48.120;-1.456;2023-05-15T02:04:54;11.50;99.90
16871;DHT22;8552;48.120;-1.456;2023-05-15T02:07:21;11.60;99.90
16871;DHT22;8552;48.120;-1.456;2023-05-15T02:09:47;11.50;99.90
16871;DHT22;8552;48.120;-1.456;2023-05-15T02:12:14;11.50;99.90
16871;DHT22;8552;48.120;-1.456;2023-05-15T02:14:40;11.60;99.90
16871;DHT22;8552;48.120;-1.456;2023-05-15T02:17:07;11.60;99.90
16871;DHT22;8552;48.120;-1.456;2023-05-15T02:19:32;11.60;99.90
16871;DHT22;8552;48.120;-1.456;2023-05-15T02:21:58;11.60;99.90
16871;DHT22;8552;48.120;-1.456;2023-05-15T02:24:24;11.60;99.90
16871;DHT22;8552;48.120;-1.456;2023-05-15T02:29:54;11.70;99.90
16871;DHT22;8552;48.120;-1.456;2023-05-15T02:32:44;11.70;99.90
16871;DHT22;8552;48.120;-1.456;2023-05-15T02:35:30;11.70;99.90
16871;DHT22;8552;48.120;-1.456;2023-05-15T02:38:00;11.70;99.90
16871;DHT22;8552;48.120;-1.456;2023-05-15T02:40:27;11.70;99.90
16871;DHT22;8552;48.120;-1.456;2023-05-15T02:42:54;11.70;99.90
16871;DHT22;8552;48.120;-1.456;2023-05-15T02:45:21;11.70;99.90
16871;DHT22;8552;48.120;-1.456;2023-05-15T02:47:48;11.70;99.90
16871;DHT22;8552;48.120;-1.456;2023-05-15T02:50:16;11.70;99.90
16871;DHT22;8552;48.120;-1.456;2023-05-15T02:52:42;11.70;99.90
16871;DHT22;8552;48.120;-1.456;2023-05-15T02:55:08;11.80;99.90
16871;DHT22;8552;48.120;-1.456;2023-05-15T02:57:34;11.80;99.90
16871;DHT22;8552;48.120;-1.456;2023-05-15T03:00:00;11.80;99.90
16871;DHT22;8552;48.120;-1.456;2023-05-15T03:02:26;11.80;99.90
16871;DHT22;8552;48.120;-1.456;2023-05-15T03:04:52;11.80;99.90
16871;DHT22;8552;48.120;-1.456;2023-05-15T03:07:18;11.80;99.90
16871;DHT22;8552;48.120;-1.456;2023-05-15T03:09:43;11.80;99.90
16871;DHT22;8552;48.120;-1.456;2023-05-15T03:12:10;11.80;99.90
16871;DHT22;8552;48.120;-1.456;2023-05-15T03:14:35;11.80;99.90
16871;DHT22;8552;48.120;-1.456;2023-05-15T03:17:01;11.80;99.90
16871;DHT22;8552;48.120;-1.456;2023-05-15T03:19:27;11.80;99.90
16871;DHT22;8552;48.120;-1.456;2023-05-15T03:21:53;11.80;99.90
16871;DHT22;8552;48.120;-1.456;2023-05-15T03:24:19;11.80;99.90
16871;DHT22;8552;48.120;-1.456;2023-05-15T03:26:45;11.90;99.90
16871;DHT22;8552;48.120;-1.456;2023-05-15T03:29:11;11.80;99.90
16871;DHT22;8552;48.120;-1.456;2023-05-15T03:31:37;11.80;99.90
16871;DHT22;8552;48.120;-1.456;2023-05-15T03:34:02;11.80;99.90
16871;DHT22;8552;48.120;-1.456;2023-05-15T03:36:28;11.80;99.90
16871;DHT22;8552;48.120;-1.456;2023-05-15T03:38:54;11.70;99.90
16871;DHT22;8552;48.120;-1.456;2023-05-15T03:41:20;11.70;99.90
16871;DHT22;8552;48.120;-1.456;2023-05-15T03:43:46;11.70;99.90
16871;DHT22;8552;48.120;-1.456;2023-05-15T03:46:12;11.60;99.90
16871;DHT22;8552;48.120;-1.456;2023-05-15T03:48:37;11.60;99.90
16871;DHT22;8552;48.120;-1.456;2023-05-15T03:51:03;11.50;99.90
16871;DHT22;8552;48.120;-1.456;2023-05-15T03:53:29;11.50;99.90
16871;DHT22;8552;48.120;-1.456;2023-05-15T03:55:55;11.50;99.90
16871;DHT22;8552;48.120;-1.456;2023-05-15T03:58:21;11.40;99.90
16871;DHT22;8552;48.120;-1.456;2023-05-15T04:00:46;11.40;99.90
16871;DHT22;8552;48.120;-1.456;2023-05-15T04:03:12;11.40;99.90
16871;DHT22;8552;48.120;-1.456;2023-05-15T04:05:37;11.30;99.90
16871;DHT22;8552;48.120;-1.456;2023-05-15T04:08:03;11.30;99.90
16871;DHT22;8552;48.120;-1.456;2023-05-15T04:10:29;11.30;99.90
16871;DHT22;8552;48.120;-1.456;2023-05-15T04:12:56;11.40;99.90
16871;DHT22;8552;48.120;-1.456;2023-05-15T04:15:23;11.40;99.90
16871;DHT22;8552;48.120;-1.456;2023-05-15T04:17:51;11.40;99.90
16871;DHT22;8552;48.120;-1.456;2023-05-15T04:20:21;11.40;99.90
16871;DHT22;8552;48.120;-1.456;2023-05-15T04:22:48;11.40;99.90
16871;DHT22;8552;48.120;-1.456;2023-05-15T04:25:14;11.40;99.90
16871;DHT22;8552;48.120;-1.456;2023-05-15T04:27:41;11.50;99.90
16871;DHT22;8552;48.120;-1.456;2023-05-15T04:30:07;11.40;99.90
16871;DHT22;8552;48.120;-1.456;2023-05-15T04:32:33;11.50;99.90
16871;DHT22;8552;48.120;-1.456;2023-05-15T04:35:00;11.40;99.90
16871;DHT22;8552;48.120;-1.456;2023-05-15T04:37:26;11.40;99.90
16871;DHT22;8552;48.120;-1.456;2023-05-15T04:39:53;11.40;99.90
16871;DHT22;8552;48.120;-1.456;2023-05-15T04:42:19;11.40;99.90
16871;DHT22;8552;48.120;-1.456;2023-05-15T04:44:44;11.40;99.90
16871;DHT22;8552;48.120;-1.456;2023-05-15T04:47:11;11.40;99.90
16871;DHT22;8552;48.120;-1.456;2023-05-15T04:49:38;11.30;99.90
16871;DHT22;8552;48.120;-1.456;2023-05-15T04:52:03;11.40;99.90
16871;DHT22;8552;48.120;-1.456;2023-05-15T04:54:29;11.40;99.90
16871;DHT22;8552;48.120;-1.456;2023-05-15T04:56:55;11.40;99.90
16871;DHT22;8552;48.120;-1.456;2023-05-15T04:59:20;11.40;99.90
16871;DHT22;8552;48.120;-1.456;2023-05-15T05:01:46;11.40;99.90
16871;DHT22;8552;48.120;-1.456;2023-05-15T05:04:12;11.40;99.90
16871;DHT22;8552;48.120;-1.456;2023-05-15T05:06:38;11.40;99.90
16871;DHT22;8552;48.120;-1.456;2023-05-15T05:09:04;11.40;99.90
16871;DHT22;8552;48.120;-1.456;2023-05-15T05:11:30;11.40;99.90
16871;DHT22;8552;48.120;-1.456;2023-05-15T05:13:55;11.40;99.90
16871;DHT22;8552;48.120;-1.456;2023-05-15T05:16:21;11.50;99.90
16871;DHT22;8552;48.120;-1.456;2023-05-15T05:18:47;11.50;99.90
16871;DHT22;8552;48.120;-1.456;2023-05-15T05:21:12;11.50;99.90
16871;DHT22;8552;48.120;-1.456;2023-05-15T05:23:38;11.60;99.90
16871;DHT22;8552;48.120;-1.456;2023-05-15T05:26:04;11.60;99.90
16871;DHT22;8552;48.120;-1.456;2023-05-15T05:28:30;11.70;99.90
16871;DHT22;8552;48.120;-1.456;2023-05-15T05:30:55;11.70;99.90
16871;DHT22;8552;48.120;-1.456;2023-05-15T05:33:21;11.70;99.90
16871;DHT22;8552;48.120;-1.456;2023-05-15T05:35:47;11.80;99.90
16871;DHT22;8552;48.120;-1.456;2023-05-15T05:38:12;11.80;99.90
16871;DHT22;8552;48.120;-1.456;2023-05-15T05:40:38;11.80;99.90
16871;DHT22;8552;48.120;-1.456;2023-05-15T05:43:04;11.80;99.90
16871;DHT22;8552;48.120;-1.456;2023-05-15T05:45:30;11.80;99.90
16871;DHT22;8552;48.120;-1.456;2023-05-15T05:47:56;11.90;99.90
16871;DHT22;8552;48.120;-1.456;2023-05-15T05:50:22;11.90;99.90
16871;DHT22;8552;48.120;-1.456;2023-05-15T05:52:48;11.90;99.90
16871;DHT22;8552;48.120;-1.456;2023-05-15T05:55:14;11.90;99.90
16871;DHT22;8552;48.120;-1.456;2023-05-15T05:57:40;11.90;99.90
16871;DHT22;8552;48.120;-1.456;2023-05-15T06:00:06;12.00;99.90
16871;DHT22;8552;48.120;-1.456;2023-05-15T06:02:34;12.00;99.90
16871;DHT22;8552;48.120;-1.456;2023-05-15T06:05:00;12.00;99.90
16871;DHT22;8552;48.120;-1.456;2023-05-15T06:07:26;12.00;99.90
16871;DHT22;8552;48.120;-1.456;2023-05-15T06:09:52;12.10;99.90
16871;DHT22;8552;48.120;-1.456;2023-05-15T06:12:18;12.10;99.90
16871;DHT22;8552;48.120;-1.456;2023-05-15T06:14:43;12.20;99.90
16871;DHT22;8552;48.120;-1.456;2023-05-15T06:17:09;12.20;99.90
16871;DHT22;8552;48.120;-1.456;2023-05-15T06:19:35;12.30;99.90
16871;DHT22;8552;48.120;-1.456;2023-05-15T06:22:01;12.30;99.90
16871;DHT22;8552;48.120;-1.456;2023-05-15T06:24:26;12.40;99.90
16871;DHT22;8552;48.120;-1.456;2023-05-15T06:26:52;12.40;99.90
16871;DHT22;8552;48.120;-1.456;2023-05-15T06:29:18;12.50;99.90
16871;DHT22;8552;48.120;-1.456;2023-05-15T06:31:44;12.60;99.90
16871;DHT22;8552;48.120;-1.456;2023-05-15T06:34:09;12.60;99.90
16871;DHT22;8552;48.120;-1.456;2023-05-15T06:36:35;12.60;99.90
16871;DHT22;8552;48.120;-1.456;2023-05-15T06:39:01;12.70;99.90
16871;DHT22;8552;48.120;-1.456;2023-05-15T06:41:27;12.70;99.90
16871;DHT22;8552;48.120;-1.456;2023-05-15T06:43:52;12.70;99.90
16871;DHT22;8552;48.120;-1.456;2023-05-15T06:46:19;12.70;99.90
16871;DHT22;8552;48.120;-1.456;2023-05-15T06:48:46;12.70;99.90
16871;DHT22;8552;48.120;-1.456;2023-05-15T06:51:12;12.70;99.90
16871;DHT22;8552;48.120;-1.456;2023-05-15T06:53:38;12.80;99.90
16871;DHT22;8552;48.120;-1.456;2023-05-15T06:56:03;12.70;99.90
16871;DHT22;8552;48.120;-1.456;2023-05-15T06:58:29;12.80;99.90
16871;DHT22;8552;48.120;-1.456;2023-05-15T07:00:55;12.90;99.90
16871;DHT22;8552;48.120;-1.456;2023-05-15T07:03:20;12.90;99.90
16871;DHT22;8552;48.120;-1.456;2023-05-15T07:05:46;13.00;99.90
16871;DHT22;8552;48.120;-1.456;2023-05-15T07:08:11;13.00;99.90
16871;DHT22;8552;48.120;-1.456;2023-05-15T07:10:37;13.10;99.90
16871;DHT22;8552;48.120;-1.456;2023-05-15T07:13:03;13.10;99.90
16871;DHT22;8552;48.120;-1.456;2023-05-15T07:15:29;13.10;99.90
16871;DHT22;8552;48.120;-1.456;2023-05-15T07:17:55;13.20;99.90
16871;DHT22;8552;48.120;-1.456;2023-05-15T07:20:21;13.30;99.90
16871;DHT22;8552;48.120;-1.456;2023-05-15T07:22:47;13.30;99.90
16871;DHT22;8552;48.120;-1.456;2023-05-15T07:25:13;13.40;99.90
16871;DHT22;8552;48.120;-1.456;2023-05-15T07:27:38;13.40;99.90
16871;DHT22;8552;48.120;-1.456;2023-05-15T07:30:04;13.50;99.90
16871;DHT22;8552;48.120;-1.456;2023-05-15T07:32:31;13.50;99.90
16871;DHT22;8552;48.120;-1.456;2023-05-15T07:34:56;13.60;99.90
16871;DHT22;8552;48.120;-1.456;2023-05-15T07:37:22;13.70;99.90
16871;DHT22;8552;48.120;-1.456;2023-05-15T07:39:48;13.70;99.90
16871;DHT22;8552;48.120;-1.456;2023-05-15T07:42:14;13.70;99.90
16871;DHT22;8552;48.120;-1.456;2023-05-15T07:44:39;13.80;99.90
16871;DHT22;8552;48.120;-1.456;2023-05-15T07:47:05;13.80;99.90
16871;DHT22;8552;48.120;-1.456;2023-05-15T07:49:31;13.70;99.90
16871;DHT22;8552;48.120;-1.456;2023-05-15T07:51:57;13.80;99.90
16871;DHT22;8552;48.120;-1.456;2023-05-15T07:54:22;13.80;99.90
16871;DHT22;8552;48.120;-1.456;2023-05-15T07:56:48;13.90;99.90
16871;DHT22;8552;48.120;-1.456;2023-05-15T07:59:14;13.80;99.90
16871;DHT22;8552;48.120;-1.456;2023-05-15T08:01:39;13.90;99.90
16871;DHT22;8552;48.120;-1.456;2023-05-15T08:04:07;13.80;99.90
16871;DHT22;8552;48.120;-1.456;2023-05-15T08:06:34;13.90;99.90
16871;DHT22;8552;48.120;-1.456;2023-05-15T08:09:01;13.80;99.90
16871;DHT22;8552;48.120;-1.456;2023-05-15T08:11:27;13.90;99.90
16871;DHT22;8552;48.120;-1.456;2023-05-15T08:13:53;14.00;99.90
16871;DHT22;8552;48.120;-1.456;2023-05-15T08:16:18;14.00;99.90
16871;DHT22;8552;48.120;-1.456;2023-05-15T08:18:44;14.10;99.90
16871;DHT22;8552;48.120;-1.456;2023-05-15T08:21:10;14.10;99.90
16871;DHT22;8552;48.120;-1.456;2023-05-15T08:23:36;14.10;99.90
16871;DHT22;8552;48.120;-1.456;2023-05-15T08:26:01;14.10;99.90
16871;DHT22;8552;48.120;-1.456;2023-05-15T08:28:27;14.10;99.90
16871;DHT22;8552;48.120;-1.456;2023-05-15T08:30:53;14.10;99.90
16871;DHT22;8552;48.120;-1.456;2023-05-15T08:33:18;14.10;99.90
16871;DHT22;8552;48.120;-1.456;2023-05-15T08:35:44;14.10;99.90
16871;DHT22;8552;48.120;-1.456;2023-05-15T08:38:10;14.20;99.90
16871;DHT22;8552;48.120;-1.456;2023-05-15T08:40:36;14.20;99.90
16871;DHT22;8552;48.120;-1.456;2023-05-15T08:43:10;14.30;99.90
16871;DHT22;8552;48.120;-1.456;2023-05-15T08:45:39;14.20;99.90
16871;DHT22;8552;48.120;-1.456;2023-05-15T08:48:12;14.30;99.90
16871;DHT22;8552;48.120;-1.456;2023-05-15T08:50:38;14.40;99.90
16871;DHT22;8552;48.120;-1.456;2023-05-15T08:53:06;14.50;99.90
16871;DHT22;8552;48.120;-1.456;2023-05-15T08:55:32;14.50;99.90
16871;DHT22;8552;48.120;-1.456;2023-05-15T08:57:58;14.70;99.90
16871;DHT22;8552;48.120;-1.456;2023-05-15T09:00:24;14.70;99.90
16871;DHT22;8552;48.120;-1.456;2023-05-15T09:02:53;14.70;99.90
16871;DHT22;8552;48.120;-1.456;2023-05-15T09:05:19;14.70;99.90
16871;DHT22;8552;48.120;-1.456;2023-05-15T09:07:45;14.70;99.90
16871;DHT22;8552;48.120;-1.456;2023-05-15T09:10:12;14.80;99.90
16871;DHT22;8552;48.120;-1.456;2023-05-15T09:12:43;14.90;99.90
16871;DHT22;8552;48.120;-1.456;2023-05-15T09:15:13;14.80;99.90
16871;DHT22;8552;48.120;-1.456;2023-05-15T09:17:41;14.80;99.90
16871;DHT22;8552;48.120;-1.456;2023-05-15T09:22:50;15.00;99.90
16871;DHT22;8552;48.120;-1.456;2023-05-15T09:25:41;15.10;99.90
16871;DHT22;8552;48.120;-1.456;2023-05-15T09:28:27;15.10;99.90
16871;DHT22;8552;48.120;-1.456;2023-05-15T09:31:01;15.20;99.90
16871;DHT22;8552;48.120;-1.456;2023-05-15T09:33:33;15.20;99.90
16871;DHT22;8552;48.120;-1.456;2023-05-15T09:36:00;15.20;99.90
16871;DHT22;8552;48.120;-1.456;2023-05-15T09:38:26;15.20;99.90
16871;DHT22;8552;48.120;-1.456;2023-05-15T09:41:02;15.30;99.90
16871;DHT22;8552;48.120;-1.456;2023-05-15T09:43:33;15.40;99.90
16871;DHT22;8552;48.120;-1.456;2023-05-15T09:45:59;15.50;99.90
16871;DHT22;8552;48.120;-1.456;2023-05-15T09:48:24;15.60;99.90
16871;DHT22;8552;48.120;-1.456;2023-05-15T09:50:50;15.40;99.90
16871;DHT22;8552;48.120;-1.456;2023-05-15T09:53:16;15.50;99.90
16871;DHT22;8552;48.120;-1.456;2023-05-15T09:55:42;15.60;99.90
16871;DHT22;8552;48.120;-1.456;2023-05-15T09:58:10;15.60;99.90
16871;DHT22;8552;48.120;-1.456;2023-05-15T10:00:37;15.50;99.90
16871;DHT22;8552;48.120;-1.456;2023-05-15T10:03:04;15.60;99.90
16871;DHT22;8552;48.120;-1.456;2023-05-15T10:05:30;15.60;99.90
16871;DHT22;8552;48.120;-1.456;2023-05-15T10:07:56;15.60;99.90
16871;DHT22;8552;48.120;-1.456;2023-05-15T10:10:23;15.70;99.90
16871;DHT22;8552;48.120;-1.456;2023-05-15T10:12:50;15.70;99.90
16871;DHT22;8552;48.120;-1.456;2023-05-15T10:15:19;15.60;99.90
16871;DHT22;8552;48.120;-1.456;2023-05-15T10:17:47;15.60;99.90
16871;DHT22;8552;48.120;-1.456;2023-05-15T10:20:15;15.70;99.90
16871;DHT22;8552;48.120;-1.456;2023-05-15T10:22:45;15.60;99.90
16871;DHT22;8552;48.120;-1.456;2023-05-15T10:25:20;15.60;99.90
16871;DHT22;8552;48.120;-1.456;2023-05-15T10:27:49;15.70;99.90
16871;DHT22;8552;48.120;-1.456;2023-05-15T10:30:15;15.80;99.90
16871;DHT22;8552;48.120;-1.456;2023-05-15T10:32:43;15.80;99.90
16871;DHT22;8552;48.120;-1.456;2023-05-15T10:35:09;15.70;99.90
16871;DHT22;8552;48.120;-1.456;2023-05-15T10:37:37;15.60;99.90
16871;DHT22;8552;48.120;-1.456;2023-05-15T10:40:07;15.60;99.90
16871;DHT22;8552;48.120;-1.456;2023-05-15T10:42:33;15.60;99.90
16871;DHT22;8552;48.120;-1.456;2023-05-15T10:45:00;15.60;99.90
16871;DHT22;8552;48.120;-1.456;2023-05-15T10:47:28;15.50;99.90
16871;DHT22;8552;48.120;-1.456;2023-05-15T10:49:55;15.40;99.90
16871;DHT22;8552;48.120;-1.456;2023-05-15T10:52:21;15.50;99.90
16871;DHT22;8552;48.120;-1.456;2023-05-15T10:54:47;15.40;99.90
16871;DHT22;8552;48.120;-1.456;2023-05-15T10:57:15;15.20;99.90
16871;DHT22;8552;48.120;-1.456;2023-05-15T10:59:41;15.10;99.90
16871;DHT22;8552;48.120;-1.456;2023-05-15T11:02:37;14.90;99.90
16871;DHT22;8552;48.120;-1.456;2023-05-15T11:05:03;14.90;99.90
16871;DHT22;8552;48.120;-1.456;2023-05-15T11:07:29;14.80;99.90
16871;DHT22;8552;48.120;-1.456;2023-05-15T11:09:55;14.90;99.90
16871;DHT22;8552;48.120;-1.456;2023-05-15T11:12:22;14.80;99.90
16871;DHT22;8552;48.120;-1.456;2023-05-15T11:17:17;14.60;99.90
16871;DHT22;8552;48.120;-1.456;2023-05-15T11:22:19;14.60;99.90
16871;DHT22;8552;48.120;-1.456;2023-05-15T11:27:38;14.80;99.90
16871;DHT22;8552;48.120;-1.456;2023-05-15T11:33:00;15.10;99.90
16871;DHT22;8552;48.120;-1.456;2023-05-15T11:38:02;15.00;99.90
16871;DHT22;8552;48.120;-1.456;2023-05-15T11:40:43;15.00;99.90
16871;DHT22;8552;48.120;-1.456;2023-05-15T11:43:24;15.00;99.90
16871;DHT22;8552;48.120;-1.456;2023-05-15T11:45:52;14.90;99.90
16871;DHT22;8552;48.120;-1.456;2023-05-15T11:48:21;15.00;99.90
16871;DHT22;8552;48.120;-1.456;2023-05-15T11:50:47;14.90;99.90
16871;DHT22;8552;48.120;-1.456;2023-05-15T11:53:14;14.90;99.90
16871;DHT22;8552;48.120;-1.456;2023-05-15T11:55:42;15.00;99.90
16871;DHT22;8552;48.120;-1.456;2023-05-15T11:58:15;15.20;99.90
16871;DHT22;8552;48.120;-1.456;2023-05-15T12:00:46;15.40;99.90
16871;DHT22;8552;48.120;-1.456;2023-05-15T12:05:41;15.30;99.90
16871;DHT22;8552;48.120;-1.456;2023-05-15T12:08:11;15.30;99.90
16871;DHT22;8552;48.120;-1.456;2023-05-15T12:10:41;15.20;99.90
16871;DHT22;8552;48.120;-1.456;2023-05-15T12:13:11;15.00;99.90
16871;DHT22;8552;48.120;-1.456;2023-05-15T12:15:42;14.90;99.90
16871;DHT22;8552;48.120;-1.456;2023-05-15T12:18:08;14.90;99.90
16871;DHT22;8552;48.120;-1.456;2023-05-15T12:20:35;14.90;99.90
16871;DHT22;8552;48.120;-1.456;2023-05-15T12:23:06;14.90;99.90
16871;DHT22;8552;48.120;-1.456;2023-05-15T12:25:33;14.90;99.90
16871;DHT22;8552;48.120;-1.456;2023-05-15T12:28:01;14.90;99.90
16871;DHT22;8552;48.120;-1.456;2023-05-15T12:30:29;14.90;99.90
16871;DHT22;8552;48.120;-1.456;2023-05-15T12:33:01;14.70;99.90
16871;DHT22;8552;48.120;-1.456;2023-05-15T12:35:27;14.50;99.90
16871;DHT22;8552;48.120;-1.456;2023-05-15T12:37:52;14.50;99.90
16871;DHT22;8552;48.120;-1.456;2023-05-15T12:40:20;14.50;99.90
16871;DHT22;8552;48.120;-1.456;2023-05-15T12:42:51;14.60;99.90
16871;DHT22;8552;48.120;-1.456;2023-05-15T12:45:21;14.70;99.90
16871;DHT22;8552;48.120;-1.456;2023-05-15T12:47:48;14.70;99.90
16871;DHT22;8552;48.120;-1.456;2023-05-15T12:50:16;14.70;99.90
16871;DHT22;8552;48.120;-1.456;2023-05-15T12:55:28;14.70;99.90
16871;DHT22;8552;48.120;-1.456;2023-05-15T12:57:59;14.60;99.90
16871;DHT22;8552;48.120;-1.456;2023-05-15T13:00:28;14.60;99.90
16871;DHT22;8552;48.120;-1.456;2023-05-15T13:02:55;14.40;99.90
16871;DHT22;8552;48.120;-1.456;2023-05-15T13:05:42;14.50;99.90
16871;DHT22;8552;48.120;-1.456;2023-05-15T13:08:09;14.50;99.90
16871;DHT22;8552;48.120;-1.456;2023-05-15T13:10:38;14.50;99.90
16871;DHT22;8552;48.120;-1.456;2023-05-15T13:13:04;14.50;99.90
16871;DHT22;8552;48.120;-1.456;2023-05-15T13:15:38;14.50;99.90
16871;DHT22;8552;48.120;-1.456;2023-05-15T13:18:09;14.50;99.90
16871;DHT22;8552;48.120;-1.456;2023-05-15T13:20:44;14.40;99.90
16871;DHT22;8552;48.120;-1.456;2023-05-15T13:23:15;14.20;99.90
16871;DHT22;8552;48.120;-1.456;2023-05-15T13:25:42;14.40;99.90
16871;DHT22;8552;48.120;-1.456;2023-05-15T13:28:08;14.50;99.90
16871;DHT22;8552;48.120;-1.456;2023-05-15T13:30:35;14.40;99.90
16871;DHT22;8552;48.120;-1.456;2023-05-15T13:33:03;14.30;99.90
16871;DHT22;8552;48.120;-1.456;2023-05-15T13:35:29;14.40;99.90
16871;DHT22;8552;48.120;-1.456;2023-05-15T13:37:55;14.20;99.90
16871;DHT22;8552;48.120;-1.456;2023-05-15T13:40:21;14.30;99.90
16871;DHT22;8552;48.120;-1.456;2023-05-15T13:42:47;14.30;99.90
16871;DHT22;8552;48.120;-1.456;2023-05-15T13:45:14;14.40;99.90
16871;DHT22;8552;48.120;-1.456;2023-05-15T13:47:41;14.40;99.90
16871;DHT22;8552;48.120;-1.456;2023-05-15T13:50:08;14.30;99.90
16871;DHT22;8552;48.120;-1.456;2023-05-15T13:52:35;14.30;99.90
16871;DHT22;8552;48.120;-1.456;2023-05-15T13:55:01;14.40;99.90
16871;DHT22;8552;48.120;-1.456;2023-05-15T13:57:28;14.30;99.90
16871;DHT22;8552;48.120;-1.456;2023-05-15T13:59:54;14.20;99.90
16871;DHT22;8552;48.120;-1.456;2023-05-15T14:02:20;14.20;99.90
16871;DHT22;8552;48.120;-1.456;2023-05-15T14:04:47;14.20;99.90
16871;DHT22;8552;48.120;-1.456;2023-05-15T14:07:13;14.20;99.90
16871;DHT22;8552;48.120;-1.456;2023-05-15T14:09:39;14.20;99.90
16871;DHT22;8552;48.120;-1.456;2023-05-15T14:12:04;14.10;99.90
16871;DHT22;8552;48.120;-1.456;2023-05-15T14:14:30;14.10;99.90
16871;DHT22;8552;48.120;-1.456;2023-05-15T14:16:56;13.90;99.90
16871;DHT22;8552;48.120;-1.456;2023-05-15T14:19:21;14.00;99.90
16871;DHT22;8552;48.120;-1.456;2023-05-15T14:21:48;14.00;99.90
16871;DHT22;8552;48.120;-1.456;2023-05-15T14:24:13;14.00;99.90
16871;DHT22;8552;48.120;-1.456;2023-05-15T14:26:39;14.00;99.90
16871;DHT22;8552;48.120;-1.456;2023-05-15T14:29:05;14.10;99.90
16871;DHT22;8552;48.120;-1.456;2023-05-15T14:31:30;14.00;99.90
16871;DHT22;8552;48.120;-1.456;2023-05-15T14:33:56;13.70;99.90
16871;DHT22;8552;48.120;-1.456;2023-05-15T14:36:21;13.90;99.90
16871;DHT22;8552;48.120;-1.456;2023-05-15T14:38:47;13.90;99.90
16871;DHT22;8552;48.120;-1.456;2023-05-15T14:41:13;13.80;99.90
16871;DHT22;8552;48.120;-1.456;2023-05-15T14:43:39;13.90;99.90
16871;DHT22;8552;48.120;-1.456;2023-05-15T14:46:05;14.10;99.90
16871;DHT22;8552;48.120;-1.456;2023-05-15T14:48:31;14.50;99.90
16871;DHT22;8552;48.120;-1.456;2023-05-15T14:50:58;14.80;99.90
16871;DHT22;8552;48.120;-1.456;2023-05-15T14:53:25;14.70;99.90
16871;DHT22;8552;48.120;-1.456;2023-05-15T14:55:51;14.80;99.90
16871;DHT22;8552;48.120;-1.456;2023-05-15T14:58:16;14.80;99.90
16871;DHT22;8552;48.120;-1.456;2023-05-15T15:00:42;14.80;99.90
16871;DHT22;8552;48.120;-1.456;2023-05-15T15:03:08;14.80;99.90
16871;DHT22;8552;48.120;-1.456;2023-05-15T15:05:34;14.70;99.90
16871;DHT22;8552;48.120;-1.456;2023-05-15T15:08:07;15.00;99.90
16871;DHT22;8552;48.120;-1.456;2023-05-15T15:10:35;15.10;99.90
16871;DHT22;8552;48.120;-1.456;2023-05-15T15:13:01;15.40;99.90
16871;DHT22;8552;48.120;-1.456;2023-05-15T15:15:27;15.50;99.90
16871;DHT22;8552;48.120;-1.456;2023-05-15T15:17:54;15.50;99.90
16871;DHT22;8552;48.120;-1.456;2023-05-15T15:20:21;15.80;99.90
16871;DHT22;8552;48.120;-1.456;2023-05-15T15:22:47;15.80;99.90
16871;DHT22;8552;48.120;-1.456;2023-05-15T15:25:13;15.70;99.90
16871;DHT22;8552;48.120;-1.456;2023-05-15T15:27:39;15.60;99.90
16871;DHT22;8552;48.120;-1.456;2023-05-15T15:30:06;15.80;99.90
16871;DHT22;8552;48.120;-1.456;2023-05-15T15:32:34;15.70;99.90
16871;DHT22;8552;48.120;-1.456;2023-05-15T15:35:00;15.60;99.90
16871;DHT22;8552;48.120;-1.456;2023-05-15T15:37:30;15.80;99.90
16871;DHT22;8552;48.120;-1.456;2023-05-15T15:39:57;15.70;99.90
16871;DHT22;8552;48.120;-1.456;2023-05-15T15:42:25;15.30;99.90
16871;DHT22;8552;48.120;-1.456;2023-05-15T15:44:59;15.00;99.90
16871;DHT22;8552;48.120;-1.456;2023-05-15T15:47:28;15.20;99.90
16871;DHT22;8552;48.120;-1.456;2023-05-15T15:50:00;15.30;99.90
16871;DHT22;8552;48.120;-1.456;2023-05-15T15:52:28;15.30;99.90
16871;DHT22;8552;48.120;-1.456;2023-05-15T15:54:58;15.10;99.90
16871;DHT22;8552;48.120;-1.456;2023-05-15T15:57:28;15.20;99.90
16871;DHT22;8552;48.120;-1.456;2023-05-15T15:59:54;15.10;99.90
16871;DHT22;8552;48.120;-1.456;2023-05-15T16:02:23;15.10;99.90
16871;DHT22;8552;48.120;-1.456;2023-05-15T16:04:51;15.00;99.90
16871;DHT22;8552;48.120;-1.456;2023-05-15T16:07:20;15.00;99.90